KE9LZ-9 Weather Reports


Display with metric or nautical units.
time (UTC)temp
F
wind
direction
speed
MPH
gust
MPH
rain 1hr
in
rain 24hr
in
rain mn
in
humidity
%
barometer
mb
20180221092505 15 294 0.0 2.0 0.00 0.00 0.00 93 1023.1
20180221092006 16 233 0.0 1.0 0.00 0.00 0.00 91 1023.0
20180221091508 16 260 0.0 1.0 0.00 0.00 0.00 91 1022.9
20180221091005 16 270 1.0 2.0 0.00 0.00 0.00 91 1023.0
20180221090005 16 306 1.0 3.0 0.00 0.00 0.00 90 1022.7
20180221085505 17 315 1.0 2.0 0.00 0.00 0.00 90 1022.9
20180221085005 17 293 1.0 2.0 0.00 0.00 0.00 88 1022.7
20180221084506 17 253 3.0 6.0 0.00 0.00 0.00 88 1022.7
20180221084014 17 270 2.0 6.0 0.00 0.00 0.00 88 1022.4
20180221083506 17 270 1.0 2.0 0.00 0.00 0.00 88 1022.3
20180221083007 17 299 3.0 7.0 0.00 0.00 0.00 86 1022.3
20180221082506 17 122 2.0 3.0 0.00 0.00 0.00 88 1022.3
20180221082006 17 242 5.0 7.0 0.00 0.00 0.00 88 1021.9
20180221081505 17 301 2.0 5.0 0.00 0.00 0.00 88 1022.3
20180221081008 18 228 2.0 5.0 0.00 0.00 0.00 88 1021.9
20180221080005 18 278 2.0 6.0 0.00 0.00 0.00 88 1021.9
20180221075513 18 274 2.0 6.0 0.00 0.00 0.00 88 1021.9
20180221075005 19 270 2.0 3.0 0.00 0.00 0.00 88 1021.6
20180221074508 19 324 3.0 3.0 0.00 0.00 0.00 88 1021.8
20180221074006 19 284 2.0 3.0 0.00 0.00 0.00 90 1021.6
20180221073511 19 270 2.0 3.0 0.00 0.00 0.00 90 1021.6
20180221073006 19 210 2.0 6.0 0.00 0.00 0.00 90 1021.2
20180221072006 19 23 2.0 3.0 0.00 0.00 0.00 88 1020.8
20180221071507 20 277 3.0 6.0 0.00 0.00 0.00 88 1021.1
20180221071005 20 350 3.0 6.0 0.00 0.00 0.00 88 1020.8
20180221070006 20 293 3.0 3.0 0.00 0.00 0.00 86 1020.5
20180221065504 20 327 4.0 9.0 0.00 0.00 0.00 86 1020.5
20180221065006 21 293 4.0 9.0 0.00 0.00 0.00 86 1020.3
20180221064505 21 245 3.0 5.0 0.00 0.00 0.00 88 1020.0
20180221064005 21 270 4.0 6.0 0.00 0.00 0.00 88 1020.1
20180221063506 21 270 3.0 8.0 0.00 0.00 0.00 88 1020.1
20180221063004 22 273 4.0 7.0 0.00 0.00 0.00 88 1020.0
20180221062509 22 276 2.0 5.0 0.00 0.00 0.00 91 1019.3
20180221062006 22 270 2.0 6.0 0.00 0.00 0.00 91 1019.2
20180221061507 22 248 2.0 3.0 0.00 0.00 0.00 91 1019.0
20180221061013 22 338 3.0 6.0 0.00 0.00 0.00 91 1019.0
20180221060006 23 331 3.0 6.0 0.00 0.00 0.00 91 1018.7
20180221055514 23 271 3.0 5.0 0.00 0.00 0.00 91 1018.7
20180221055005 23 293 4.0 5.0 0.00 0.00 0.00 91 1018.7
20180221054505 23 279 5.0 7.0 0.00 0.00 0.00 93 1018.7
20180221054005 24 255 2.0 3.0 0.00 0.00 0.00 93 1018.4
20180221053508 24 235 2.0 3.0 0.00 0.00 0.00 93 1018.3
20180221053008 24 273 5.0 10.0 0.00 0.00 0.00 95 1018.2
20180221052504 24 274 2.0 3.0 0.00 0.00 0.00 96 1018.0
20180221052006 24 252 1.0 3.0 0.00 0.00 0.00 96 1017.5
20180221051506 24 250 0.0 2.0 0.00 0.00 0.00 96 1017.5
20180221051007 24 293 1.0 3.0 0.00 0.00 0.00 96 1017.5
20180221050006 25 122 0.0 3.0 0.00 0.00 0.00 96 1017.2
20180221045506 25 333 0.0 1.0 0.00 0.00 0.00 96 1017.1
20180221045006 25 307 0.0 1.0 0.00 0.00 0.00 96 1017.2
20180221044506 25 209 0.0 1.0 0.00 0.00 0.00 96 1017.2
20180221044006 25 236 0.0 2.0 0.00 0.00 0.00 96 1016.9
20180221043505 25 333 1.0 3.0 0.00 0.00 0.00 96 1016.9
20180221043015 25 222 2.0 3.0 0.00 0.00 0.00 96 1016.9
20180221042508 25 258 3.0 7.0 0.00 0.00 0.00 96 1016.9
20180221042009 25 270 1.0 2.0 0.00 0.00 0.00 96 1016.5
20180221041506 25 281 2.0 3.0 0.00 0.00 0.00 96 1016.5
20180221041005 25 264 1.0 2.0 0.00 0.00 0.00 96 1016.4
20180221040005 25 284 1.0 2.0 0.00 0.00 0.00 96 1016.2
20180221035505 25 293 0.0 2.0 0.00 0.00 0.00 96 1016.2
20180221034505 25 203 1.0 2.0 0.00 0.00 0.00 96 1015.9
20180221034008 26 225 0.0 2.0 0.00 0.00 0.00 96 1015.8
20180221033506 26 289 0.0 0.0 0.00 0.00 0.00 96 1015.6
20180221033005 26 293 1.0 2.0 0.00 0.00 0.00 95 1015.8
20180221032505 26 279 2.0 3.0 0.00 0.00 0.00 95 1015.8
20180221032008 26 158 2.0 5.0 0.00 0.00 0.00 96 1015.8
20180221031505 26 279 1.0 3.0 0.00 0.00 0.00 96 1015.4
20180221031009 26 225 1.0 2.0 0.00 0.00 0.00 96 1015.4
20180221030005 26 312 1.0 3.0 0.00 0.00 0.00 95 1015.2
20180221025507 26 282 0.0 3.0 0.00 0.00 0.00 95 1015.1
20180221025011 26 293 2.0 5.0 0.00 0.00 0.00 95 1015.1
20180221024505 26 203 1.0 3.0 0.00 0.00 0.00 95 1015.1
20180221024005 27 322 1.0 3.0 0.00 0.00 0.00 95 1015.1
20180221023514 27 247 1.0 3.0 0.00 0.00 0.00 95 1015.0
20180221023007 27 306 1.0 3.0 0.00 0.00 0.00 95 1014.8
20180221022506 27 286 0.0 3.0 0.00 0.00 0.00 95 1014.7
20180221022008 27 311 2.0 5.0 0.00 0.00 0.00 95 1014.7
20180221021508 27 90 3.0 7.0 0.00 0.00 0.00 95 1014.5
20180221021008 27 270 2.0 7.0 0.00 0.00 0.00 95 1014.4
20180221020004 27 279 3.0 7.0 0.00 0.00 0.00 95 1014.1
20180221015505 27 244 2.0 5.0 0.00 0.00 0.00 95 1013.9
20180221015010 28 270 2.0 3.0 0.00 0.00 0.00 95 1013.7
20180221014505 28 328 2.0 6.0 0.00 0.00 0.00 96 1014.1
20180221014005 28 261 2.0 5.0 0.00 0.00 0.00 96 1013.6
20180221013507 28 6 2.0 3.0 0.00 0.00 0.00 96 1013.4
20180221013008 28 270 2.0 6.0 0.00 0.00 0.00 96 1013.4
20180221012505 28 275 2.0 3.0 0.00 0.00 0.00 96 1013.1
20180221012009 28 275 2.0 6.0 0.00 0.00 0.00 96 1013.0
20180221011506 29 239 1.0 3.0 0.00 0.00 0.00 96 1013.0
20180221011006 29 282 2.0 3.0 0.00 0.00 0.00 96 1012.7
20180221010009 29 244 3.0 5.0 0.00 0.00 0.00 96 1012.7
20180221005507 29 263 4.0 7.0 0.00 0.00 0.00 96 1012.6
20180221005005 29 308 3.0 8.0 0.00 0.00 0.00 96 1012.3
20180221004506 30 270 3.0 6.0 0.00 0.00 0.00 96 1012.3
20180221004008 30 293 2.0 3.0 0.00 0.00 0.00 96 1011.9
20180221003507 30 248 2.0 3.0 0.00 0.00 0.00 96 1011.9
20180221003005 30 271 3.0 6.0 0.00 0.00 0.00 95 1011.6
20180221002508 30 266 3.0 6.0 0.00 0.00 0.00 96 1011.6
20180221002004 30 257 3.0 5.0 0.00 0.00 0.00 96 1011.2
20180221001505 31 270 2.0 3.0 0.00 0.00 0.00 96 1011.0
20180221001006 31 249 2.0 5.0 0.00 0.00 0.00 96 1010.9
20180221000005 31 253 3.0 6.0 0.00 0.00 0.00 96 1010.6
20180220235504 31 251 3.0 6.0 0.00 0.00 0.00 97 1010.6
20180220235008 32 293 3.0 6.0 0.00 0.00 0.00 98 1010.3
20180220234506 32 270 3.0 9.0 0.00 0.00 0.00 98 1010.2
20180220234015 32 261 3.0 6.0 0.00 0.00 0.00 98 1010.2
20180220233506 32 254 3.0 6.0 0.00 0.00 0.00 98 1009.9
20180220233008 32 289 2.0 3.0 0.00 0.00 0.00 98 1009.9
20180220232504 32 329 1.0 3.0 0.00 0.00 0.00 98 1009.9
20180220232005 32 73 2.0 3.0 0.00 0.00 0.00 98 1009.5
20180220231505 33 315 2.0 3.0 0.00 0.00 0.00 98 1009.2
20180220231016 33 257 2.0 3.0 0.00 0.00 0.00 98 1008.9
20180220230005 33 250 1.0 3.0 0.00 0.00 0.00 98 1008.9
20180220225504 33 17 1.0 2.0 0.00 0.00 0.00 98 1008.5
20180220225008 33 270 2.0 3.0 0.00 0.00 0.00 98 1008.5
20180220224506 33 251 2.0 3.0 0.00 0.00 0.00 98 1008.5
20180220224005 33 180 0.0 1.0 0.00 0.00 0.00 98 1008.2
20180220223507 33 270 1.0 2.0 0.00 0.00 0.00 98 1008.2
20180220223010 33 270 0.0 2.0 0.00 0.00 0.00 98 1008.2
20180220222506 33 225 0.0 1.0 0.00 0.00 0.00 98 1007.9
20180220222005 33 243 0.0 1.0 0.00 0.00 0.00 98 1007.9
20180220221505 33 267 0.0 0.0 0.00 0.00 0.00 98 1007.9
20180220221005 33 235 0.0 0.0 0.00 0.00 0.00 98 1007.9
20180220220005 33 233 0.0 1.0 0.00 0.00 0.00 98 1007.9
20180220215505 34 260 0.0 1.0 0.00 0.00 0.00 98 1007.9
20180220215005 34 251 0.0 0.0 0.00 0.00 0.00 98 1007.5
20180220214510 34 225 0.0 0.0 0.00 0.00 0.00 98 1007.5
20180220214004 34 242 0.0 0.0 0.00 0.00 0.00 96 1007.3
20180220213506 34 214 0.0 0.0 0.00 0.00 0.00 96 1007.2
20180220213009 34 200 0.0 0.0 0.00 0.00 0.00 96 1007.2
20180220212504 35 248 0.0 0.0 0.00 0.00 0.00 96 1007.2
20180220212005 35 230 0.0 0.0 0.00 0.00 0.00 96 1007.2
20180220211506 34 171 0.0 0.0 0.00 0.00 0.00 97 1007.2
20180220211006 34 231 0.0 0.0 0.00 0.00 0.00 98 1006.9
20180220210005 34 186 0.0 0.0 0.00 0.00 0.00 98 1007.2
20180220205504 34 265 0.0 0.0 0.00 0.00 0.00 98 1007.0
20180220205005 34 195 0.0 0.0 0.00 0.00 0.00 98 1006.8
20180220204504 34 263 0.0 0.0 0.00 0.00 0.00 98 1006.8
20180220204006 33 113 0.0 0.0 0.00 0.00 0.00 98 1006.8
20180220203507 33 220 0.0 0.0 0.00 0.00 0.00 98 1006.8
20180220203006 33 218 1.0 2.0 0.00 0.00 0.00 98 1006.8
20180220202505 33 248 0.0 2.0 0.00 0.00 0.00 98 1007.0
20180220202004 33 248 1.0 2.0 0.00 0.00 0.00 98 1007.3
20180220201504 33 236 1.0 2.0 0.00 0.00 0.00 98 1006.7
20180220201009 33 192 0.0 2.0 0.00 0.00 0.00 98 1006.9
20180220200010 33 237 1.0 3.0 0.00 0.00 0.00 98 1006.9
20180220195504 33 278 1.0 2.0 0.00 0.00 0.00 98 1006.8
20180220195007 32 248 1.0 3.0 0.00 0.00 0.00 98 1006.7
20180220194504 32 253 2.0 3.0 0.00 0.00 0.00 98 1006.3
20180220194004 32 270 2.0 3.0 0.00 0.00 0.00 98 1006.6
20180220193505 32 225 1.0 3.0 0.00 0.00 0.00 98 1006.6
20180220193006 32 315 2.0 3.0 0.00 0.00 0.00 98 1006.6
20180220192505 32 248 0.0 3.0 0.00 0.00 0.00 98 1006.7
20180220192007 32 244 1.0 2.0 0.00 0.00 0.00 98 1006.9
20180220191505 32 270 1.0 1.0 0.00 0.00 0.00 98 1007.3
20180220191006 32 250 1.0 3.0 0.00 0.00 0.00 98 1006.9
20180220190005 32 338 0.0 1.0 0.00 0.00 0.00 98 1007.3
20180220185505 32 158 0.0 1.0 0.00 0.00 0.00 98 1006.6
20180220185005 32 270 1.0 2.0 0.00 0.00 0.00 98 1007.0
20180220184506 32 251 1.0 2.0 0.00 0.00 0.00 98 1006.9
20180220184008 32 248 2.0 3.0 0.00 0.00 0.00 98 1007.3
20180220183513 32 148 1.0 2.0 0.00 0.00 0.00 98 1007.0
20180220183008 32 204 1.0 3.0 0.00 0.00 0.00 98 1006.6
20180220182505 32 225 1.0 3.0 0.00 0.00 0.00 98 1006.8
20180220181009 31 238 2.0 3.0 0.00 0.00 0.00 96 1006.9
20180220180005 32 257 1.0 3.0 0.00 0.00 0.00 96 1006.7
20180220175504 31 270 0.0 1.0 0.00 0.00 0.00 96 1006.7
20180220175006 31 200 1.0 3.0 0.00 0.00 0.00 96 1006.6
20180220174505 31 267 1.0 3.0 0.00 0.00 0.00 96 1006.8
20180220174008 31 270 1.0 2.0 0.00 0.00 0.00 96 1006.6
20180220173505 31 244 1.0 2.0 0.00 0.00 0.00 96 1006.6
20180220173012 31 242 2.0 3.0 0.00 0.00 0.00 96 1006.6
20180220172504 31 227 1.0 2.0 0.00 0.00 0.00 96 1006.6
20180220172014 31 261 0.0 2.0 0.00 0.00 0.00 95 1006.8
20180220171504 31 264 1.0 3.0 0.00 0.00 0.00 96 1006.6
20180220171005 31 234 1.0 2.0 0.00 0.00 0.00 96 1006.7
20180220170009 31 293 0.0 1.0 0.00 0.00 0.00 95 1006.7
20180220165504 31 225 0.0 1.0 0.00 0.00 0.00 95 1006.7
20180220165009 31 243 0.0 1.0 0.00 0.00 0.00 95 1006.4
20180220164504 31 158 1.0 1.0 0.00 0.00 0.00 95 1006.6
20180220164005 31 264 0.0 1.0 0.00 0.00 0.00 95 1007.0
20180220163509 31 290 0.0 1.0 0.00 0.00 0.00 95 1006.9
20180220163007 31 270 0.0 0.0 0.00 0.00 0.00 95 1006.5
20180220162505 31 248 0.0 2.0 0.00 0.00 0.00 95 1006.7
20180220162005 30 189 0.0 1.0 0.00 0.00 0.00 95 1006.4
20180220161504 29 278 0.0 2.0 0.00 0.00 0.00 96 1006.4
20180220161006 30 178 0.0 2.0 0.00 0.00 0.00 96 1006.1
20180220160006 29 249 0.0 1.0 0.00 0.00 0.00 96 1006.7
20180220155505 29 261 0.0 0.0 0.00 0.00 0.00 96 1006.9
20180220155007 29 110 0.0 2.0 0.00 0.00 0.00 96 1006.6
20180220154507 29 135 0.0 2.0 0.00 0.00 0.00 96 1006.8
20180220154006 28 250 0.0 2.0 0.00 0.00 0.00 96 1007.0
20180220153505 28 262 0.0 1.0 0.00 0.00 0.00 96 1006.7
20180220153004 28 158 0.0 2.0 0.00 0.00 0.00 97 1006.7
20180220152505 28 248 0.0 1.0 0.00 0.00 0.00 98 1007.0
20180220152006 28 305 0.0 0.0 0.00 0.00 0.00 98 1006.7
20180220151506 28 220 0.0 0.0 0.00 0.00 0.00 98 1006.7
20180220151004 27 185 0.0 1.0 0.00 0.00 0.00 98 1006.8
20180220150004 27 240 0.0 1.0 0.00 0.00 0.00 98 1007.4
20180220145005 27 337 0.0 1.0 0.00 0.00 0.00 98 1007.0
20180220144513 27 23 0.0 0.0 0.00 0.00 0.00 98 1006.7
20180220144005 26 265 0.0 1.0 0.00 0.00 0.00 98 1007.0
20180220143507 26 254 1.0 1.0 0.00 0.00 0.00 98 1006.7
20180220143005 26 287 0.0 2.0 0.00 0.00 0.00 98 1006.6
20180220142504 26 241 0.0 0.0 0.00 0.00 0.00 98 1006.4
20180220142006 26 316 0.0 0.0 0.00 0.00 0.00 98 1006.4
20180220141505 26 300 0.0 0.0 0.00 0.00 0.00 98 1006.4
20180220141008 26 315 0.0 0.0 0.00 0.00 0.00 98 1006.4
20180220140008 26 346 1.0 3.0 0.00 0.00 0.00 98 1006.4
20180220135506 26 54 0.0 2.0 0.00 0.00 0.00 98 1006.4
20180220135008 26 0 0.0 0.0 0.00 0.00 0.00 98 1006.7
20180220134505 26 80 0.0 0.0 0.00 0.00 0.00 98 1006.7
20180220134008 26 80 0.0 0.0 0.00 0.00 0.00 98 1006.9
20180220133506 26 109 0.0 0.0 0.00 0.00 0.00 98 1006.8
20180220133010 26 90 0.0 1.0 0.00 0.00 0.00 98 1006.7
20180220132504 26 293 0.0 0.0 0.00 0.00 0.00 98 1006.7
20180220132006 26 99 0.0 0.0 0.00 0.00 0.00 98 1006.7
20180220131505 26 0 0.0 2.0 0.00 0.00 0.00 98 1007.0
20180220131004 26 64 1.0 3.0 0.00 0.00 0.00 98 1006.4
20180220130005 26 74 0.0 2.0 0.00 0.00 0.00 98 1006.7
20180220125504 26 113 1.0 2.0 0.00 0.00 0.00 98 1006.6
20180220125007 26 84 0.0 2.0 0.00 0.00 0.00 98 1006.4
20180220124508 26 72 0.0 0.0 0.00 0.00 0.00 98 1007.7
20180220124005 26 105 0.0 0.0 0.00 0.00 0.00 98 1008.2
20180220123507 26 90 0.0 0.0 0.00 0.00 0.00 98 1008.2
20180220123006 26 113 0.0 0.0 0.00 0.00 0.00 98 1008.4
20180220122506 25 45 0.0 0.0 0.00 0.00 0.00 98 1008.7
20180220122006 25 139 0.0 0.0 0.00 0.00 0.00 98 1008.5
20180220121506 25 89 0.0 0.0 0.00 0.00 0.00 98 1008.5
20180220121006 25 250 0.0 0.0 0.00 0.00 0.00 98 1008.5
20180220120007 25 113 0.0 0.0 0.00 0.00 0.00 98 1008.5
20180220115506 25 295 0.0 0.0 0.00 0.00 0.00 98 1008.8
20180220115007 25 291 0.0 0.0 0.00 0.00 0.00 98 1008.5
20180220114506 25 315 0.0 0.0 0.00 0.00 0.00 98 1008.2
20180220114007 25 218 0.0 0.0 0.00 0.00 0.00 98 1008.2
20180220113505 25 87 0.0 2.0 0.00 0.00 0.00 98 1008.2
20180220113006 25 39 0.0 0.0 0.00 0.00 0.00 98 1008.2
20180220112506 25 90 0.0 0.0 0.00 0.00 0.00 98 1008.2
20180220112014 25 68 0.0 0.0 0.00 0.00 0.00 98 1008.2
20180220111506 25 105 0.0 0.0 0.00 0.00 0.00 98 1007.8
20180220111006 25 125 0.0 0.0 0.00 0.00 0.00 98 1007.8
20180220110006 25 72 0.0 0.0 0.00 0.00 0.00 98 1008.1
20180220105506 25 68 0.0 1.0 0.00 0.00 0.00 98 1007.8
20180220105007 25 41 0.0 2.0 0.00 0.00 0.00 98 1007.5
20180220104506 25 45 0.0 1.0 0.00 0.00 0.00 98 1007.2
20180220104015 25 83 0.0 0.0 0.00 0.00 0.00 98 1007.5
20180220103508 25 338 0.0 0.0 0.00 0.00 0.00 98 1007.5
20180220103016 25 37 0.0 0.0 0.00 0.00 0.00 98 1007.5
20180220102507 25 40 0.0 0.0 0.00 0.00 0.00 98 1007.5
20180220102012 25 352 0.0 0.0 0.00 0.00 0.00 98 1007.8
20180220101505 25 68 0.0 1.0 0.00 0.00 0.00 98 1007.5
20180220101006 25 113 0.0 0.0 0.00 0.00 0.00 98 1007.5
20180220100006 25 30 0.0 1.0 0.00 0.00 0.00 98 1007.7
20180220095506 25 357 1.0 2.0 0.00 0.00 0.00 98 1007.6
20180220095005 25 355 0.0 1.0 0.00 0.00 0.00 98 1007.8
20180220094508 25 116 0.0 1.0 0.00 0.00 0.00 98 1007.9
20180220094005 25 0 0.0 0.0 0.00 0.00 0.00 98 1007.8
20180220093508 25 358 0.0 0.0 0.00 0.00 0.00 98 1008.2
20180220093007 25 78 0.0 0.0 0.00 0.00 0.00 98 1008.2